Leonard, Oklahoma
Current Conditions -  °F | °C
As of 12:53 AM on Tuesday 21 Oct 2014 (Local Time) from KRVS Reporting Station
Haze Haze  
Wind Chill: 61°   Ceiling: Unl
Heat Index: 61°   Visibility: 6mi
Dew Point: 60°   Wind: 0mph
Humidity: 97%   Direction: NA
Pressure: 30.06"   Gusts: NA
Location:  35.92°N, 95.8°W
Report Text: KRVS 210553Z AUTO 00000KT 6SM BR SCT045 16/16 A3006 RMK AO2 SLP185 T01610156 10194 20161 402500133 51000
Loading
Personal Weather Stations






























Interactive Weather Map
Tropical Storm Tracking
New forecast layout! Learn more

10-Day Weather Forecast

Advertisements
Track Severe Weather on mobile